createdAt,value
2022-09-20T00:01:36.745Z,57.31
2022-09-20T00:04:05.189Z,57.33
2022-09-20T00:06:32.241Z,57.47
2022-09-20T00:08:59.533Z,57.36
2022-09-20T00:11:26.458Z,57.56
2022-09-20T00:13:53.163Z,57.36
2022-09-20T00:16:20.626Z,57.31
2022-09-20T00:18:53.625Z,57.20
2022-09-20T00:21:20.998Z,57.41
2022-09-20T00:23:47.328Z,57.41
2022-09-20T00:26:17.514Z,57.50
2022-09-20T00:28:44.086Z,57.39
2022-09-20T00:31:10.786Z,57.38
2022-09-20T00:33:55.469Z,57.35
2022-09-20T00:36:21.777Z,57.49
2022-09-20T00:38:48.092Z,57.41
2022-09-20T00:41:14.407Z,57.31
2022-09-20T00:43:41.408Z,57.38
2022-09-20T00:46:19.831Z,57.20
2022-09-20T00:48:46.330Z,57.32
2022-09-20T00:51:13.777Z,57.44
2022-09-20T00:53:40.996Z,57.37
2022-09-20T00:56:08.853Z,57.54
2022-09-20T00:58:37.756Z,57.59
2022-09-20T01:01:04.129Z,57.43
2022-09-20T01:03:31.620Z,57.50
2022-09-20T01:05:57.938Z,57.52
2022-09-20T01:08:25.229Z,57.53
2022-09-20T01:10:51.851Z,57.45
2022-09-20T01:13:18.157Z,57.49
2022-09-20T01:15:44.863Z,57.43
2022-09-20T01:18:11.178Z,57.15
2022-09-20T01:20:38.909Z,57.35
2022-09-20T01:23:23.950Z,57.44
2022-09-20T01:26:08.842Z,57.41
2022-09-20T01:28:35.168Z,57.51
2022-09-20T01:31:18.189Z,57.50
2022-09-20T01:33:46.845Z,57.48
2022-09-20T01:36:14.041Z,57.52
2022-09-20T01:38:43.378Z,57.34
2022-09-20T01:41:18.025Z,57.50
2022-09-20T01:43:58.908Z,57.39
2022-09-20T01:46:28.824Z,57.33
2022-09-20T01:48:56.348Z,57.24
2022-09-20T01:51:29.609Z,57.29
2022-09-20T01:54:01.524Z,57.32
2022-09-20T01:56:39.097Z,57.39
2022-09-20T01:59:24.909Z,57.30
2022-09-20T02:01:54.221Z,57.36
2022-09-20T02:04:29.889Z,57.41
2022-09-20T02:07:14.946Z,57.43
2022-09-20T02:09:56.974Z,57.28
2022-09-20T02:12:27.120Z,57.35
2022-09-20T02:15:07.051Z,57.50
2022-09-20T02:17:34.599Z,56.97
2022-09-20T02:20:03.655Z,57.22
2022-09-20T02:22:29.971Z,56.87
2022-09-20T02:25:15.253Z,57.06
2022-09-20T02:28:00.315Z,57.14
2022-09-20T02:30:44.787Z,56.88
2022-09-20T02:33:12.926Z,56.78
2022-09-20T02:35:39.173Z,56.83
2022-09-20T02:38:16.025Z,56.85
2022-09-20T02:40:51.340Z,56.85
2022-09-20T02:43:21.362Z,56.94
2022-09-20T02:45:53.724Z,56.98
2022-09-20T02:48:21.682Z,56.87
2022-09-20T02:50:54.912Z,56.71
2022-09-20T02:53:39.949Z,56.95
2022-09-20T02:56:13.319Z,57.06
2022-09-20T02:58:57.457Z,57.01
2022-09-20T03:01:26.633Z,57.05
2022-09-20T03:03:58.463Z,57.05
2022-09-20T03:06:28.267Z,56.96
2022-09-20T03:09:00.678Z,56.96
2022-09-20T03:11:32.990Z,57.04
2022-09-20T03:14:05.402Z,56.96
2022-09-20T03:16:52.402Z,57.31
2022-09-20T03:19:23.420Z,56.96
2022-09-20T03:21:59.694Z,56.95
2022-09-20T03:24:39.837Z,56.95
2022-09-20T03:27:24.666Z,56.99
2022-09-20T03:29:50.897Z,56.95
2022-09-20T03:32:26.764Z,56.93
2022-09-20T03:35:07.069Z,56.88
2022-09-20T03:37:55.806Z,56.80
2022-09-20T03:40:44.188Z,56.92
2022-09-20T03:43:18.404Z,56.82
2022-09-20T03:45:53.198Z,56.92
2022-09-20T03:48:19.472Z,56.91
2022-09-20T03:50:54.653Z,57.15
2022-09-20T03:53:41.937Z,57.30
2022-09-20T03:56:13.325Z,57.27
2022-09-20T03:58:58.547Z,57.29
2022-09-20T04:01:45.245Z,57.19
2022-09-20T04:04:25.683Z,57.36
2022-09-20T04:07:05.213Z,57.26
2022-09-20T04:09:47.598Z,57.32
2022-09-20T04:12:27.113Z,57.36
2022-09-20T04:15:12.572Z,57.21
2022-09-20T04:17:41.594Z,57.08
2022-09-20T04:20:13.658Z,57.08
2022-09-20T04:22:40.061Z,56.92
2022-09-20T04:25:19.955Z,57.23
2022-09-20T04:27:47.175Z,57.19
2022-09-20T04:30:17.263Z,57.27
2022-09-20T04:32:48.034Z,56.94
2022-09-20T04:35:54.170Z,56.80
2022-09-20T04:38:20.651Z,56.85
2022-09-20T04:40:55.544Z,56.86
2022-09-20T04:43:37.851Z,56.87
2022-09-20T04:46:19.960Z,56.94
2022-09-20T04:48:46.279Z,56.86
2022-09-20T04:51:24.011Z,57.03
2022-09-20T04:53:55.500Z,56.88
2022-09-20T04:56:40.270Z,56.94
2022-09-20T04:59:10.202Z,56.80
2022-09-20T05:01:43.491Z,56.90
2022-09-20T05:04:28.338Z,57.02
2022-09-20T05:07:13.583Z,57.05
2022-09-20T05:09:55.184Z,57.20
2022-09-20T05:12:39.851Z,57.19
2022-09-20T05:15:11.676Z,57.27
2022-09-20T05:18:10.757Z,57.26
2022-09-20T05:21:03.524Z,57.17
2022-09-20T05:23:33.292Z,57.15
2022-09-20T05:26:09.778Z,57.23
2022-09-20T05:28:39.017Z,57.16
2022-09-20T05:31:08.097Z,57.24
2022-09-20T05:33:44.911Z,57.27
2022-09-20T05:36:23.207Z,57.16
2022-09-20T05:38:56.377Z,57.21
2022-09-20T05:41:45.091Z,57.11
2022-09-20T05:44:15.815Z,57.15
2022-09-20T05:46:50.011Z,57.12
2022-09-20T05:49:19.670Z,57.08
2022-09-20T05:51:53.798Z,57.12
2022-09-20T05:54:29.524Z,57.06
2022-09-20T05:57:02.281Z,57.21
2022-09-20T05:59:40.016Z,57.11
2022-09-20T06:02:21.525Z,57.23
2022-09-20T06:04:51.871Z,57.21
2022-09-20T06:07:38.546Z,57.27
2022-09-20T06:10:24.618Z,57.14
2022-09-20T06:13:09.513Z,57.17
2022-09-20T06:15:50.330Z,57.19
2022-09-20T06:18:16.571Z,57.00
2022-09-20T06:20:56.157Z,56.99
2022-09-20T06:23:22.494Z,57.20
2022-09-20T06:25:50.957Z,57.24
2022-09-20T06:28:21.111Z,57.10
2022-09-20T06:30:51.162Z,57.18
2022-09-20T06:33:17.461Z,57.03
2022-09-20T06:35:53.829Z,57.14
2022-09-20T06:39:00.534Z,57.20
2022-09-20T06:41:28.242Z,56.99
2022-09-20T06:43:59.032Z,57.10
2022-09-20T06:46:28.843Z,57.02
2022-09-20T06:48:55.478Z,57.20
2022-09-20T06:51:22.633Z,57.16
2022-09-20T06:53:48.949Z,57.12
2022-09-20T06:56:16.780Z,57.04
2022-09-20T06:58:43.112Z,57.13
2022-09-20T07:01:09.496Z,57.12
2022-09-20T07:03:35.842Z,56.98
2022-09-20T07:06:04.587Z,57.07
2022-09-20T07:08:30.980Z,57.06
2022-09-20T07:10:57.288Z,57.11
2022-09-20T07:13:24.049Z,57.00
2022-09-20T07:15:51.129Z,57.04
2022-09-20T07:18:17.450Z,57.02
2022-09-20T07:20:44.624Z,57.08
2022-09-20T07:23:10.963Z,57.13
2022-09-20T07:25:37.333Z,57.00
2022-09-20T07:28:03.656Z,57.08
2022-09-20T07:30:29.990Z,57.09
2022-09-20T07:32:56.304Z,56.95
2022-09-20T07:35:22.600Z,57.00
2022-09-20T07:37:48.904Z,57.11
2022-09-20T07:40:15.787Z,57.04
2022-09-20T07:42:42.362Z,57.04
2022-09-20T07:45:08.961Z,57.14
2022-09-20T07:47:35.535Z,57.00
2022-09-20T07:50:02.503Z,57.01
2022-09-20T07:52:29.018Z,57.18
2022-09-20T07:54:56.142Z,57.14
2022-09-20T07:57:22.487Z,57.14
2022-09-20T07:59:48.808Z,56.94
2022-09-20T08:02:15.395Z,56.92
2022-09-20T08:04:41.732Z,57.10
2022-09-20T08:07:08.058Z,57.13
2022-09-20T08:09:34.369Z,57.04
2022-09-20T08:14:05.342Z,56.91
2022-09-20T08:14:47.865Z,57.13
2022-09-20T08:17:14.176Z,57.06
2022-09-20T08:19:40.610Z,57.01
2022-09-20T08:22:07.043Z,57.10
2022-09-20T08:24:33.389Z,57.15
2022-09-20T08:26:59.741Z,57.11
2022-09-20T08:29:26.055Z,57.10
2022-09-20T08:31:53.014Z,57.08
2022-09-20T08:34:19.370Z,56.93
2022-09-20T08:36:46.937Z,57.03
2022-09-20T08:42:12.821Z,56.90
2022-09-20T08:44:45.325Z,57.08
2022-09-20T08:47:21.874Z,56.95
2022-09-20T08:49:48.291Z,57.18
2022-09-20T08:52:18.787Z,57.15
2022-09-20T08:54:45.109Z,57.17
2022-09-20T08:57:14.094Z,57.32
2022-09-20T08:59:40.830Z,57.48
2022-09-20T09:02:17.124Z,57.78
2022-09-20T09:04:44.696Z,58.09
2022-09-20T09:07:14.309Z,58.36
2022-09-20T09:09:41.893Z,58.83
2022-09-20T09:12:13.983Z,59.17
2022-09-20T09:14:49.423Z,58.77
2022-09-20T09:17:16.629Z,58.76
2022-09-20T09:19:46.850Z,58.64
2022-09-20T09:22:17.486Z,58.55
2022-09-20T09:24:43.831Z,58.58
2022-09-20T09:27:17.401Z,58.49
2022-09-20T09:29:50.957Z,58.57
2022-09-20T09:32:21.670Z,58.49
2022-09-20T09:34:48.017Z,58.62
2022-09-20T09:37:24.171Z,58.68
2022-09-20T09:40:07.382Z,58.35
2022-09-20T09:42:33.781Z,58.54
2022-09-20T09:45:12.718Z,58.30
2022-09-20T09:47:39.029Z,58.32
2022-09-20T09:50:09.720Z,58.53
2022-09-20T09:52:36.477Z,58.44
2022-09-20T09:55:05.458Z,58.46
2022-09-20T09:57:34.386Z,58.32
2022-09-20T10:00:18.622Z,58.46
2022-09-20T10:03:00.392Z,58.35
2022-09-20T10:05:38.811Z,58.34
2022-09-20T10:08:10.689Z,58.23
2022-09-20T10:10:41.409Z,58.53
2022-09-20T10:13:19.878Z,58.40
2022-09-20T10:15:55.401Z,58.82
2022-09-20T10:18:27.069Z,58.64
2022-09-20T10:20:59.341Z,58.95
2022-09-20T10:26:33.914Z,59.10
2022-09-20T10:29:04.082Z,58.66
2022-09-20T10:31:36.763Z,58.43
2022-09-20T10:34:22.536Z,58.29
2022-09-20T10:36:53.505Z,58.38
2022-09-20T10:39:29.003Z,58.85
2022-09-20T10:42:39.035Z,59.22
2022-09-20T10:45:44.358Z,59.66
2022-09-20T10:48:12.283Z,59.14
2022-09-20T10:50:38.777Z,59.17
2022-09-20T10:53:09.091Z,59.38
2022-09-20T10:55:47.323Z,59.67
2022-09-20T10:58:31.850Z,59.48
2022-09-20T11:01:02.159Z,59.36
2022-09-20T11:03:33.469Z,59.78
2022-09-20T11:06:18.729Z,59.72
2022-09-20T11:08:45.827Z,59.66
2022-09-20T11:11:21.361Z,59.45
2022-09-20T11:13:47.634Z,59.50
2022-09-20T11:16:20.068Z,59.59
2022-09-20T11:18:48.266Z,59.53
2022-09-20T11:21:16.506Z,59.49
2022-09-20T11:23:45.052Z,59.49
2022-09-20T11:26:12.831Z,59.40
2022-09-20T11:28:40.682Z,59.13
2022-09-20T11:31:07.855Z,59.16
2022-09-20T11:33:41.433Z,59.13
2022-09-20T11:36:09.619Z,59.07
2022-09-20T11:38:53.005Z,59.06
2022-09-20T11:41:23.056Z,59.18
2022-09-20T11:43:49.369Z,59.11
2022-09-20T11:46:19.930Z,59.05
2022-09-20T11:48:47.383Z,59.28
2022-09-20T11:51:19.599Z,59.09
2022-09-20T11:53:57.917Z,59.32
2022-09-20T11:56:27.681Z,59.08
2022-09-20T11:59:00.746Z,59.17
2022-09-20T12:01:37.136Z,59.17
2022-09-20T12:04:31.284Z,59.28
2022-09-20T12:07:03.483Z,59.03
2022-09-20T12:09:38.311Z,59.23
2022-09-20T12:12:14.551Z,59.20
2022-09-20T12:14:42.161Z,58.98
2022-09-20T12:17:28.418Z,59.03
2022-09-20T12:19:54.757Z,59.03
2022-09-20T12:22:27.317Z,58.98
2022-09-20T12:25:13.521Z,59.14
2022-09-20T12:27:39.775Z,59.07
2022-09-20T12:30:15.914Z,59.04
2022-09-20T12:32:43.451Z,59.09
2022-09-20T12:35:28.809Z,59.11
2022-09-20T12:37:55.515Z,58.85
2022-09-20T12:40:22.164Z,58.92
2022-09-20T12:42:53.793Z,59.15
2022-09-20T12:45:20.102Z,58.95
2022-09-20T12:47:53.005Z,59.24
2022-09-20T12:50:37.702Z,59.26
2022-09-20T12:53:04.204Z,59.07
2022-09-20T12:55:36.710Z,59.13
2022-09-20T12:58:13.328Z,59.17
2022-09-20T13:00:59.253Z,59.02
2022-09-20T13:03:29.623Z,59.22
2022-09-20T13:06:12.392Z,59.25
2022-09-20T13:08:54.062Z,59.15
2022-09-20T13:11:20.877Z,59.12
2022-09-20T13:13:51.590Z,59.23
2022-09-20T13:16:26.308Z,59.11
2022-09-20T13:19:04.148Z,59.28
2022-09-20T13:21:31.003Z,59.19
2022-09-20T13:23:57.326Z,59.10
2022-09-20T13:26:27.450Z,59.13
2022-09-20T13:28:54.517Z,59.15
2022-09-20T13:31:20.854Z,59.17
2022-09-20T13:33:47.494Z,59.33
2022-09-20T13:36:13.811Z,59.25
2022-09-20T13:38:40.319Z,59.14
2022-09-20T13:41:09.143Z,59.10
2022-09-20T13:43:42.891Z,59.19
2022-09-20T13:46:09.233Z,59.22
2022-09-20T13:48:35.590Z,59.20
2022-09-20T13:51:02.408Z,59.20
2022-09-20T13:53:41.023Z,59.29
2022-09-20T13:56:16.794Z,59.08
2022-09-20T13:58:43.103Z,59.15
2022-09-20T14:01:19.531Z,59.03
2022-09-20T14:03:45.868Z,59.09
2022-09-20T14:06:13.510Z,59.28
2022-09-20T14:08:43.808Z,59.26
2022-09-20T14:11:10.310Z,59.20
2022-09-20T14:13:40.213Z,59.01
2022-09-20T14:16:06.703Z,59.14
2022-09-20T14:18:33.006Z,59.20
2022-09-20T14:21:00.142Z,59.20
2022-09-20T14:23:26.978Z,59.24
2022-09-20T14:26:06.270Z,59.01
2022-09-20T14:28:32.600Z,58.86
2022-09-20T14:31:06.119Z,58.91
2022-09-20T14:33:32.663Z,58.81
2022-09-20T14:35:59.279Z,58.95
2022-09-20T14:38:26.046Z,58.75
2022-09-20T14:40:52.639Z,58.86
2022-09-20T14:43:26.367Z,58.81
2022-09-20T14:45:54.204Z,58.94
2022-09-20T14:48:21.321Z,58.70
2022-09-20T14:51:07.716Z,58.61
2022-09-20T14:53:37.082Z,58.74
2022-09-20T14:56:06.429Z,58.81
2022-09-20T14:58:33.126Z,58.57
2022-09-20T15:01:05.804Z,58.58
2022-09-20T15:03:39.000Z,58.61
2022-09-20T15:06:06.421Z,58.44
2022-09-20T15:08:36.589Z,58.45
2022-09-20T15:11:03.039Z,58.52
2022-09-20T15:13:29.347Z,58.34
2022-09-20T15:15:55.660Z,58.55
2022-09-20T15:18:22.735Z,58.36
2022-09-20T15:20:49.561Z,58.32
2022-09-20T15:23:15.882Z,58.33
2022-09-20T15:25:42.208Z,58.50
2022-09-20T15:28:10.979Z,58.45
2022-09-20T15:30:37.482Z,58.35
2022-09-20T15:33:03.843Z,58.42
2022-09-20T15:35:30.156Z,58.49
2022-09-20T15:37:56.487Z,58.36
2022-09-20T15:40:22.831Z,58.51
2022-09-20T15:42:49.224Z,58.45
2022-09-20T15:45:15.533Z,58.50
2022-09-20T15:47:41.848Z,58.65
2022-09-20T15:50:08.615Z,58.53
2022-09-20T15:52:36.136Z,58.49
2022-09-20T15:55:03.740Z,58.59
2022-09-20T15:57:30.799Z,58.90
2022-09-20T15:59:58.622Z,59.09
2022-09-20T16:02:25.083Z,59.09
2022-09-20T16:04:54.640Z,59.03
2022-09-20T16:07:25.571Z,59.10
2022-09-20T16:09:52.626Z,59.69
2022-09-20T16:12:19.395Z,59.75
2022-09-20T16:14:45.719Z,59.66
2022-09-20T16:17:12.075Z,59.95
2022-09-20T16:19:38.553Z,59.68
2022-09-20T16:22:04.884Z,59.65
2022-09-20T16:24:33.005Z,59.83
2022-09-20T16:27:00.704Z,59.69
2022-09-20T16:29:29.307Z,59.74
2022-09-20T16:31:55.912Z,59.70
2022-09-20T16:34:31.093Z,59.73
2022-09-20T16:36:58.592Z,59.60
2022-09-20T16:39:27.467Z,59.59
2022-09-20T16:41:54.390Z,59.51
2022-09-20T16:44:20.702Z,59.56
2022-09-20T16:46:47.409Z,59.58
2022-09-20T16:49:14.115Z,59.70
2022-09-20T16:51:41.211Z,59.52
2022-09-20T16:54:12.082Z,59.73
2022-09-20T16:56:39.065Z,59.52
2022-09-20T16:59:05.486Z,59.39
2022-09-20T17:01:31.957Z,59.64
2022-09-20T17:03:58.515Z,59.48
2022-09-20T17:06:24.849Z,59.69
2022-09-20T17:08:55.567Z,59.52
2022-09-20T17:11:25.249Z,59.66
2022-09-20T17:13:51.934Z,59.43
2022-09-20T17:16:19.361Z,59.52
2022-09-20T17:18:45.704Z,59.37
2022-09-20T17:21:13.727Z,59.27
2022-09-20T17:23:48.711Z,59.29
2022-09-20T17:26:18.046Z,59.33
2022-09-20T17:28:45.022Z,59.33
2022-09-20T17:31:12.045Z,59.36
2022-09-20T17:33:38.434Z,59.32
2022-09-20T17:36:04.782Z,59.33
2022-09-20T17:38:33.479Z,59.38
2022-09-20T17:41:00.442Z,59.42
2022-09-20T17:43:28.840Z,59.28
2022-09-20T17:45:56.593Z,59.43
2022-09-20T17:48:25.894Z,59.48
2022-09-20T17:50:56.004Z,59.40
2022-09-20T17:53:22.309Z,59.36
2022-09-20T17:55:54.854Z,59.51
2022-09-20T17:58:21.343Z,59.28
2022-09-20T18:00:47.718Z,59.48
2022-09-20T18:03:14.850Z,59.32
2022-09-20T18:05:41.185Z,59.25
2022-09-20T18:08:07.523Z,59.30
2022-09-20T18:10:33.860Z,59.25
2022-09-20T18:13:01.009Z,59.33
2022-09-20T18:15:27.746Z,59.13
2022-09-20T18:17:54.652Z,59.18
2022-09-20T18:20:21.022Z,59.31
2022-09-20T18:22:47.703Z,59.28
2022-09-20T18:25:14.006Z,59.25
2022-09-20T18:27:40.350Z,59.19
2022-09-20T18:30:06.941Z,59.29
2022-09-20T18:32:33.250Z,59.38
2022-09-20T18:34:59.552Z,59.17
2022-09-20T18:37:25.890Z,59.29
2022-09-20T18:39:52.204Z,59.07
2022-09-20T18:42:18.518Z,58.98
2022-09-20T18:44:45.950Z,59.25
2022-09-20T18:47:12.290Z,59.10
2022-09-20T18:49:38.593Z,59.12
2022-09-20T18:52:05.415Z,59.10
2022-09-20T18:54:33.253Z,59.22
2022-09-20T18:56:59.782Z,59.26
2022-09-20T18:59:26.584Z,59.04
2022-09-20T19:01:58.542Z,59.15
2022-09-20T19:04:30.812Z,59.02
2022-09-20T19:07:09.216Z,59.15
2022-09-20T19:09:49.592Z,59.09
2022-09-20T19:12:35.505Z,59.18
2022-09-20T19:15:01.764Z,59.16
2022-09-20T19:17:40.292Z,59.06
2022-09-20T19:20:11.874Z,59.08
2022-09-20T19:22:51.464Z,59.13
2022-09-20T19:25:19.336Z,58.97
2022-09-20T19:27:45.831Z,59.02
2022-09-20T19:30:12.938Z,59.08
2022-09-20T19:32:39.445Z,59.03
2022-09-20T19:35:05.955Z,58.97
2022-09-20T19:37:52.824Z,59.03
2022-09-20T19:40:25.289Z,58.86
2022-09-20T19:43:09.088Z,59.18
2022-09-20T19:45:55.556Z,58.87
2022-09-20T19:48:38.236Z,56.39
2022-09-20T19:51:05.334Z,51.64
2022-09-20T19:53:31.748Z,51.34
2022-09-20T19:56:03.421Z,51.89
2022-09-20T19:58:29.819Z,53.12
2022-09-20T20:00:57.911Z,54.48
2022-09-20T20:03:26.151Z,56.37
2022-09-20T20:05:54.793Z,56.88
2022-09-20T20:08:27.150Z,57.24
2022-09-20T20:10:53.387Z,57.40
2022-09-20T20:13:57.497Z,57.43
2022-09-20T20:16:25.199Z,57.27
2022-09-20T20:19:10.499Z,57.65
2022-09-20T20:21:40.028Z,57.64
2022-09-20T20:24:21.734Z,57.66
2022-09-20T20:26:48.068Z,57.85
2022-09-20T20:29:14.426Z,57.76
2022-09-20T20:31:40.782Z,57.77
2022-09-20T20:34:08.814Z,57.80
2022-09-20T20:36:35.470Z,57.79
2022-09-20T20:39:02.815Z,57.74
2022-09-20T20:41:31.831Z,57.82
2022-09-20T20:43:58.270Z,57.84
2022-09-20T20:46:25.191Z,58.07
2022-09-20T20:48:51.668Z,57.96
2022-09-20T20:51:18.968Z,57.89
2022-09-20T20:53:47.135Z,57.99
2022-09-20T20:56:17.222Z,57.85
2022-09-20T20:58:43.841Z,57.88
2022-09-20T21:01:11.183Z,57.97
2022-09-20T21:03:37.535Z,57.90
2022-09-20T21:06:04.497Z,58.01
2022-09-20T21:08:32.025Z,57.96
2022-09-20T21:11:02.418Z,58.03
2022-09-20T21:13:29.563Z,57.81
2022-09-20T21:16:02.496Z,57.83
2022-09-20T21:18:28.902Z,57.90
2022-09-20T21:20:55.214Z,57.84
2022-09-20T21:23:21.522Z,57.96
2022-09-20T21:25:49.071Z,57.91
2022-09-20T21:28:15.383Z,57.95
2022-09-20T21:30:41.760Z,58.01
2022-09-20T21:33:08.100Z,58.12
2022-09-20T21:35:34.406Z,58.06
2022-09-20T21:38:00.974Z,58.04
2022-09-20T21:40:27.350Z,58.03
2022-09-20T21:42:53.732Z,57.97
2022-09-20T21:45:24.759Z,58.02
2022-09-20T21:47:51.109Z,57.92
2022-09-20T21:50:17.421Z,58.01
2022-09-20T21:52:46.401Z,58.01
2022-09-20T21:55:12.705Z,58.08
2022-09-20T21:57:39.019Z,57.91
2022-09-20T22:00:05.746Z,57.99
2022-09-20T22:02:38.899Z,57.96
2022-09-20T22:05:05.222Z,58.13
2022-09-20T22:07:31.530Z,58.09
2022-09-20T22:09:57.857Z,57.96
2022-09-20T22:12:24.289Z,57.93
2022-09-20T22:14:50.598Z,57.94
2022-09-20T22:17:16.904Z,57.93
2022-09-20T22:19:43.579Z,57.92
2022-09-20T22:22:09.884Z,58.00
2022-09-20T22:24:36.281Z,58.01
2022-09-20T22:27:02.580Z,57.96
2022-09-20T22:29:28.883Z,57.97
2022-09-20T22:31:55.196Z,57.92
2022-09-20T22:34:21.754Z,57.91
2022-09-20T22:36:48.091Z,57.86
2022-09-20T22:39:14.718Z,57.88
2022-09-20T22:41:41.280Z,57.92
2022-09-20T22:44:07.606Z,57.81
2022-09-20T22:46:33.993Z,57.94
2022-09-20T22:49:00.306Z,57.87
2022-09-20T22:51:27.524Z,57.95
2022-09-20T22:53:53.846Z,57.84
2022-09-20T22:56:24.867Z,57.82
2022-09-20T22:58:51.915Z,57.87
2022-09-20T23:01:25.239Z,57.77
2022-09-20T23:03:58.428Z,57.93
2022-09-20T23:06:28.578Z,57.89
2022-09-20T23:08:59.078Z,57.81
2022-09-20T23:11:25.406Z,57.82
2022-09-20T23:13:58.218Z,57.88
2022-09-20T23:16:25.379Z,57.86
2022-09-20T23:18:52.063Z,57.71
2022-09-20T23:21:18.456Z,57.80
2022-09-20T23:23:44.765Z,57.85
2022-09-20T23:26:12.076Z,57.64
2022-09-20T23:28:38.826Z,57.85
2022-09-20T23:31:06.147Z,57.88
2022-09-20T23:33:32.527Z,57.83
2022-09-20T23:35:58.862Z,57.79
2022-09-20T23:38:25.386Z,57.80
2022-09-20T23:40:51.717Z,57.64
2022-09-20T23:43:18.033Z,57.88
2022-09-20T23:45:44.383Z,57.81
2022-09-20T23:48:10.717Z,57.67
2022-09-20T23:50:37.180Z,57.68
2022-09-20T23:53:03.527Z,57.75
2022-09-20T23:55:29.833Z,57.74
2022-09-20T23:57:59.033Z,57.79
